^^
Saratoga-Weather Station Historical Data
Daily Summary for March 11, 2020 Units:  English    Metric   Both
Daily Weekly Monthly Yearly Custom
  High: Low: Average:
Temperature: 70.9 °F 54.7 °F 62.4 °F
Dew Point: 57.4 °F 53.6 °F 55.2 °F
Humidity: 97% 57% 79%
Wind Speed: 10.1mph 0mph 1.3mph
Wind Gust: 12mph - -
Wind- - East
Pressure: 29.9 in 29.7 in -
Precipitation: 0 in    
Historical Graphs
 
 
Tabular Data for March 11, 2020
Time Temperature Dew Point Pressure Wind Wind Speed Wind Gust Humidity Rainfall Rate (Hourly) solar
00:04 56.7 °F 55.6 °F 29.9 in Calm     96% 0 in 0 W/m2
00:09 56.7 °F 55.6 °F 29.9 in Calm     96% 0 in 0 W/m2
00:14 56.7 °F 55.6 °F 29.9 in Calm     96% 0 in 0 W/m2
00:19 56.7 °F 55.6 °F 29.9 in Calm     96% 0 in 0 W/m2
00:24 56.5 °F 55 °F 29.9 in Calm   1 mph 95% 0 in 0 W/m2
00:30 56.5 °F 55.4 °F 29.9 in Calm     96% 0 in 0 W/m2
00:35 56.5 °F 55.4 °F 29.9 in Calm     96% 0 in 0 W/m2
00:40 56.5 °F 55.4 °F 29.9 in Calm     96% 0 in 0 W/m2
00:45 56.5 °F 55.4 °F 29.9 in Calm     96% 0 in 0 W/m2
00:50 56.5 °F 55.4 °F 29.9 in Calm     96% 0 in 0 W/m2
00:55 56.5 °F 55.4 °F 29.9 in West 0.9 mph 2 mph 96% 0 in 0 W/m2
01:00 56.5 °F 55.4 °F 29.9 in Calm   1 mph 96% 0 in 0 W/m2
01:05 56.5 °F 55.4 °F 29.9 in Calm     96% 0 in 0 W/m2
01:10 56.7 °F 55.6 °F 29.9 in Calm     96% 0 in 0 W/m2
01:15 56.7 °F 55.6 °F 29.9 in Calm     96% 0 in 0 W/m2
01:20 56.7 °F 55.6 °F 29.9 in Calm     96% 0 in 0 W/m2
01:25 56.7 °F 55.6 °F 29.9 in Calm     96% 0 in 0 W/m2
01:30 56.5 °F 55.4 °F 29.9 in Calm     96% 0 in 0 W/m2
01:35 56.5 °F 55.4 °F 29.9 in Calm   1 mph 96% 0 in 0 W/m2
01:40 56.5 °F 55.4 °F 29.9 in Calm     96% 0 in 0 W/m2
01:45 56.5 °F 55.4 °F 29.9 in Calm   2 mph 96% 0 in 0 W/m2
01:50 56.3 °F 55.2 °F 29.9 in East 2 mph 2 mph 96% 0 in 0 W/m2
01:55 56.3 °F 55.2 °F 29.9 in Calm     96% 0 in 0 W/m2
02:00 56.3 °F 55.2 °F 29.9 in Calm   2 mph 96% 0 in 0 W/m2
02:05 56.3 °F 55.2 °F 29.9 in Calm     96% 0 in 0 W/m2
02:10 56.5 °F 55.4 °F 29.8 in Calm     96% 0 in 0 W/m2
02:15 56.3 °F 55.2 °F 29.8 in Calm     96% 0 in 0 W/m2
02:20 56.3 °F 55.2 °F 29.8 in Calm     96% 0 in 0 W/m2
02:25 56.3 °F 55.2 °F 29.8 in Calm     96% 0 in 0 W/m2
02:30 56.3 °F 55.2 °F 29.8 in Calm     96% 0 in 0 W/m2
02:35 56.3 °F 55.2 °F 29.8 in Calm   1 mph 96% 0 in 0 W/m2
02:40 56.1 °F 55 °F 29.8 in Calm   1 mph 96% 0 in 0 W/m2
02:45 56.1 °F 55 °F 29.8 in Calm   1 mph 96% 0 in 0 W/m2
02:50 56.1 °F 55 °F 29.8 in ENE 0.9 mph 1 mph 96% 0 in 0 W/m2
02:55 55.9 °F 54.9 °F 29.8 in Calm     96% 0 in 0 W/m2
03:00 55.9 °F 54.9 °F 29.8 in Calm   2 mph 96% 0 in 0 W/m2
03:05 55.9 °F 54.9 °F 29.8 in Calm     96% 0 in 0 W/m2
03:10 55.8 °F 54.7 °F 29.8 in Calm     96% 0 in 0 W/m2
03:15 55.8 °F 54.7 °F 29.8 in Calm     96% 0 in 0 W/m2
03:20 55.8 °F 54.7 °F 29.8 in Calm     96% 0 in 0 W/m2
03:25 55.8 °F 54.7 °F 29.8 in Calm     96% 0 in 0 W/m2
03:30 55.6 °F 54.5 °F 29.8 in Calm     96% 0 in 0 W/m2
03:35 55.6 °F 54.5 °F 29.8 in Calm     96% 0 in 0 W/m2
03:40 55.6 °F 54.5 °F 29.8 in Calm   1 mph 96% 0 in 0 W/m2
03:45 55.6 °F 54.5 °F 29.8 in Calm   1 mph 96% 0 in 0 W/m2
03:50 55.6 °F 54.5 °F 29.8 in Calm     96% 0 in 0 W/m2
03:55 55.4 °F 54.3 °F 29.8 in ESE 0.9 mph 2 mph 96% 0 in 0 W/m2
04:00 55.2 °F 54.1 °F 29.8 in Calm   1 mph 96% 0 in 0 W/m2
04:05 55.2 °F 54.1 °F 29.8 in ESE 2 mph 2 mph 96% 0 in 0 W/m2
04:10 55 °F 54 °F 29.8 in Calm     96% 0 in 0 W/m2
04:15 55 °F 54 °F 29.8 in Calm     96% 0 in 0 W/m2
04:20 55 °F 54 °F 29.8 in Calm     96% 0 in 0 W/m2
04:25 55 °F 54 °F 29.8 in Calm   1 mph 96% 0 in 0 W/m2
04:30 55 °F 54 °F 29.8 in Calm     96% 0 in 0 W/m2
04:35 55.2 °F 54.1 °F 29.8 in Calm   2 mph 96% 0 in 0 W/m2
04:40 55.2 °F 54.1 °F 29.8 in Calm     96% 0 in 0 W/m2
04:45 55.2 °F 54.1 °F 29.8 in Calm   2 mph 96% 0 in 0 W/m2
04:50 55 °F 54 °F 29.8 in Calm     96% 0 in 0 W/m2
04:55 55 °F 54 °F 29.8 in Calm     96% 0 in 0 W/m2
05:00 55 °F 54 °F 29.8 in Calm     96% 0 in 0 W/m2
05:05 55 °F 54 °F 29.8 in Calm     96% 0 in 0 W/m2
05:10 55 °F 54.1 °F 29.8 in Calm     97% 0 in 0 W/m2
05:15 54.9 °F 54 °F 29.8 in Calm     97% 0 in 0 W/m2
05:20 54.9 °F 54 °F 29.8 in Calm     97% 0 in 0 W/m2
05:25 54.9 °F 53.8 °F 29.8 in Calm   1 mph 96% 0 in 0 W/m2
05:30 54.9 °F 53.8 °F 29.8 in Calm     96% 0 in 0 W/m2
05:36 54.9 °F 53.8 °F 29.8 in Calm   1 mph 96% 0 in 0 W/m2
05:41 54.7 °F 53.6 °F 29.8 in Calm   2 mph 96% 0 in 0 W/m2
05:46 54.7 °F 53.6 °F 29.8 in Calm   1 mph 96% 0 in 0 W/m2
05:51 54.7 °F 53.6 °F 29.8 in Calm     96% 0 in 0 W/m2
05:56 54.7 °F 53.8 °F 29.8 in Calm     97% 0 in 5 W/m2
06:01 54.9 °F 54 °F 29.8 in Calm     97% 0 in 7 W/m2
06:06 54.9 °F 54 °F 29.8 in Calm     97% 0 in 9 W/m2
06:11 54.9 °F 54 °F 29.8 in Calm     97% 0 in 11 W/m2
06:16 54.9 °F 54 °F 29.8 in Calm   1 mph 97% 0 in 14 W/m2
06:21 54.9 °F 54 °F 29.8 in Calm     97% 0 in 18 W/m2
06:26 54.9 °F 54 °F 29.8 in Calm   1 mph 97% 0 in 23 W/m2
06:31 54.9 °F 54 °F 29.8 in Calm     97% 0 in 23 W/m2
06:36 55 °F 54.1 °F 29.8 in Calm     97% 0 in 23 W/m2
06:41 55 °F 54.1 °F 29.8 in Calm     97% 0 in 23 W/m2
06:46 55 °F 54.1 °F 29.8 in Calm     97% 0 in 25 W/m2
06:51 55.2 °F 54.3 °F 29.8 in Calm   1 mph 97% 0 in 30 W/m2
06:56 55.2 °F 54.3 °F 29.8 in Calm   1 mph 97% 0 in 37 W/m2
07:01 55.4 °F 54.5 °F 29.8 in Calm     97% 0 in 51 W/m2
07:06 55.6 °F 54.7 °F 29.8 in Calm   2 mph 97% 0 in 63 W/m2
07:11 55.6 °F 54.7 °F 29.8 in Calm   1 mph 97% 0 in 70 W/m2
07:16 55.6 °F 54.7 °F 29.8 in Calm   2 mph 97% 0 in 70 W/m2
07:21 55.8 °F 54.9 °F 29.8 in Calm     97% 0 in 81 W/m2
07:26 55.9 °F 55 °F 29.8 in Calm     97% 0 in 97 W/m2
07:31 56.1 °F 55.2 °F 29.8 in Calm     97% 0 in 111 W/m2
07:36 56.3 °F 55.4 °F 29.8 in Calm     97% 0 in 134 W/m2
07:41 56.7 °F 55.8 °F 29.8 in Calm     97% 0 in 141 W/m2
07:46 56.8 °F 55.9 °F 29.8 in Calm     97% 0 in 142 W/m2
07:51 57 °F 56.1 °F 29.8 in Calm     97% 0 in 137 W/m2
07:56 57.4 °F 56.5 °F 29.8 in ESE 0.9 mph 1 mph 97% 0 in 121 W/m2
08:01 57 °F 56.1 °F 29.8 in Calm   1 mph 97% 0 in 123 W/m2
08:06 57 °F 55.9 °F 29.8 in Calm   2 mph 96% 0 in 171 W/m2
08:11 57.4 °F 56.3 °F 29.8 in ENE 0.9 mph 2 mph 96% 0 in 160 W/m2
08:16 57.6 °F 56.5 °F 29.8 in Calm   3 mph 96% 0 in 202 W/m2
08:21 57.7 °F 56.7 °F 29.8 in Calm   2 mph 96% 0 in 139 W/m2
08:26 57.9 °F 56.1 °F 29.8 in ENE 0.9 mph 4 mph 94% 0 in 149 W/m2
08:31 57.9 °F 56.1 °F 29.8 in Calm   2 mph 94% 0 in 167 W/m2
08:36 58.3 °F 56.3 °F 29.8 in East 0.9 mph 5 mph 93% 0 in 185 W/m2
08:41 58.5 °F 56.5 °F 29.8 in ENE 0.9 mph 1 mph 93% 0 in 162 W/m2
08:46 58.6 °F 55.9 °F 29.8 in NNE 2 mph 5 mph 91% 0 in 120 W/m2
08:51 58.5 °F 55.8 °F 29.8 in East 0.9 mph 2 mph 91% 0 in 120 W/m2
08:56 58.5 °F 55.6 °F 29.8 in Calm   2 mph 90% 0 in 121 W/m2
09:01 58.5 °F 55.6 °F 29.8 in North 2 mph 2 mph 90% 0 in 139 W/m2
09:06 58.6 °F 55.8 °F 29.8 in Calm   1 mph 90% 0 in 165 W/m2
09:11 58.6 °F 55.9 °F 29.8 in Calm   2 mph 91% 0 in 232 W/m2
09:16 58.8 °F 55.9 °F 29.8 in ESE 0.9 mph 2 mph 90% 0 in 246 W/m2
09:21 59.2 °F 56.3 °F 29.8 in Calm   2 mph 90% 0 in 255 W/m2
09:26 59.4 °F 55.8 °F 29.8 in Calm   1 mph 88% 0 in 244 W/m2
09:31 59.5 °F 55.9 °F 29.8 in NE 2 mph 2 mph 88% 0 in 278 W/m2
09:36 59.9 °F 55.9 °F 29.8 in East 2.9 mph 5 mph 87% 0 in 271 W/m2
09:41 60.1 °F 56.5 °F 29.8 in ENE 0.9 mph 2 mph 88% 0 in 264 W/m2
09:46 60.3 °F 56.3 °F 29.8 in ESE 2.9 mph 3 mph 87% 0 in 253 W/m2
09:51 60.4 °F 56.3 °F 29.8 in ENE 2 mph 3 mph 86% 0 in 279 W/m2
09:56 60.4 °F 56.3 °F 29.8 in NE 0.9 mph 5 mph 86% 0 in 334 W/m2
10:01 60.8 °F 56.3 °F 29.8 in Calm   1 mph 85% 0 in 359 W/m2
10:06 61.2 °F 56.7 °F 29.8 in Calm   5 mph 85% 0 in 355 W/m2
10:11 61.3 °F 56.1 °F 29.8 in ENE 0.9 mph 2 mph 83% 0 in 378 W/m2
10:16 61.5 °F 56.7 °F 29.8 in East 2.9 mph 4 mph 84% 0 in 415 W/m2
10:21 61.5 °F 55.6 °F 29.8 in ESE 2 mph 4 mph 81% 0 in 343 W/m2
10:27 61.7 °F 55.8 °F 29.8 in NE 0.9 mph 2 mph 81% 0 in 348 W/m2
10:32 61.9 °F 55.6 °F 29.8 in South 0.9 mph 2 mph 80% 0 in 399 W/m2
10:37 62.1 °F 55.8 °F 29.8 in ENE 4.9 mph 5 mph 80% 0 in 476 W/m2
10:42 62.2 °F 55.9 °F 29.8 in NE 2.9 mph 3 mph 80% 0 in 410 W/m2
10:47 62.4 °F 55.8 °F 29.8 in ESE 2 mph 3 mph 79% 0 in 443 W/m2
10:52 62.8 °F 56.8 °F 29.8 in Calm   2 mph 81% 0 in 434 W/m2
10:57 63 °F 55.9 °F 29.8 in East 2 mph 3 mph 78% 0 in 455 W/m2
11:02 63.3 °F 55.9 °F 29.8 in NE 2.9 mph 9 mph 77% 0 in 492 W/m2
11:07 63.7 °F 56.3 °F 29.8 in SSE 4 mph 4 mph 77% 0 in 531 W/m2
11:12 63.9 °F 55.8 °F 29.8 in ESE 0.9 mph 9 mph 75% 0 in 555 W/m2
11:17 64.4 °F 56.7 °F 29.8 in ENE 2.9 mph 4 mph 76% 0 in 735 W/m2
11:22 65.1 °F 57.4 °F 29.8 in Calm   6 mph 76% 0 in 963 W/m2
11:27 65.5 °F 56.7 °F 29.8 in SE 2.9 mph 4 mph 73% 0 in 780 W/m2
11:32 65.7 °F 56.8 °F 29.8 in Calm   2 mph 73% 0 in 628 W/m2
11:37 65.8 °F 56.5 °F 29.8 in NW 2 mph 3 mph 72% 0 in 974 W/m2
11:42 66.2 °F 56.8 °F 29.8 in ENE 0.9 mph 2 mph 72% 0 in 942 W/m2
11:47 66.7 °F 56.7 °F 29.8 in ESE 2 mph 3 mph 70% 0 in 821 W/m2
11:52 66.9 °F 56.5 °F 29.8 in ENE 2.9 mph 8 mph 69% 0 in 979 W/m2
11:57 67.6 °F 56.7 °F 29.8 in ENE 2.9 mph 6 mph 68% 0 in 953 W/m2
12:02 67.8 °F 55.2 °F 29.8 in East 2 mph 3 mph 64% 0 in 1005 W/m2
12:07 67.8 °F 55.6 °F 29.8 in Calm   2 mph 65% 0 in 283 W/m2
12:12 67.8 °F 55.6 °F 29.8 in NE 0.9 mph 3 mph 65% 0 in 211 W/m2
12:18 67.5 °F 54.9 °F 29.8 in NW 0.9 mph 2 mph 64% 0 in 229 W/m2
12:23 67.1 °F 55.4 °F 29.8 in NE 2.9 mph 3 mph 66% 0 in 186 W/m2
12:28 66.7 °F 54.7 °F 29.8 in ENE 2 mph 4 mph 65% 0 in 283 W/m2
12:33 66.2 °F 54.9 °F 29.8 in SE 2 mph 4 mph 67% 0 in 267 W/m2
12:38 66 °F 56.3 °F 29.8 in Calm   1 mph 71% 0 in 267 W/m2
12:43 66.2 °F 55.8 °F 29.8 in ESE 2 mph 3 mph 69% 0 in 287 W/m2
12:48 66.9 °F 55.6 °F 29.8 in East 4 mph 12 mph 67% 0 in 1099 W/m2
12:53 67.5 °F 55.8 °F 29.8 in Calm   3 mph 66% 0 in 274 W/m2
12:58 67.5 °F 55.8 °F 29.8 in Calm   12 mph 66% 0 in 287 W/m2
13:03 67.6 °F 55.4 °F 29.8 in Calm   1 mph 65% 0 in 1035 W/m2
13:08 68 °F 55.8 °F 29.8 in East 2 mph 7 mph 65% 0 in 1056 W/m2
13:13 68.4 °F 56.5 °F 29.8 in WNW 4 mph 4 mph 66% 0 in 1032 W/m2
13:18 68.7 °F 56.8 °F 29.8 in NE 2.9 mph 6 mph 66% 0 in 1018 W/m2
13:23 69.1 °F 57.2 °F 29.8 in East 4.9 mph 5 mph 66% 0 in 1000 W/m2
13:28 69.1 °F 55 °F 29.8 in NE 0.9 mph 10 mph 61% 0 in 954 W/m2
13:33 69.1 °F 55 °F 29.8 in ESE 4 mph 7 mph 61% 0 in 990 W/m2
13:38 68.9 °F 54.9 °F 29.8 in NE 2 mph 10 mph 61% 0 in 1028 W/m2
13:43 68.7 °F 53.8 °F 29.8 in East 0.9 mph 4 mph 59% 0 in 237 W/m2
13:48 68.2 °F 54.1 °F 29.8 in NW 0.9 mph 6 mph 61% 0 in 214 W/m2
13:53 67.8 °F 54 °F 29.8 in NE 0.9 mph 2 mph 61% 0 in 301 W/m2
13:58 68.4 °F 54.9 °F 29.8 in ENE 4 mph 4 mph 62% 0 in 933 W/m2
14:03 69.3 °F 56.1 °F 29.8 in ENE 2.9 mph 8 mph 63% 0 in 974 W/m2
14:08 70 °F 54.5 °F 29.8 in NE 2.9 mph 10 mph 58% 0 in 1023 W/m2
14:13 69.4 °F 54.5 °F 29.8 in NE 4 mph 4 mph 59% 0 in 258 W/m2
14:18 69.6 °F 55 °F 29.8 in NNW 0.9 mph 9 mph 60% 0 in 1109 W/m2
14:23 69.8 °F 55.2 °F 29.8 in NE 4 mph 6 mph 60% 0 in 260 W/m2
14:28 69.4 °F 55.4 °F 29.8 in West 4 mph 8 mph 61% 0 in 260 W/m2
14:33 69.1 °F 55 °F 29.8 in ENE 4.9 mph 5 mph 61% 0 in 279 W/m2
14:38 69.1 °F 55.6 °F 29.8 in ENE 2.9 mph 4 mph 62% 0 in 288 W/m2
14:43 68.9 °F 54.9 °F 29.8 in East 4 mph 7 mph 61% 0 in 311 W/m2
14:48 68.4 °F 54.9 °F 29.8 in ENE 4 mph 9 mph 62% 0 in 278 W/m2
14:53 68 °F 54.9 °F 29.8 in East 0.9 mph 4 mph 63% 0 in 153 W/m2
14:58 67.8 °F 54.7 °F 29.8 in SE 4 mph 9 mph 63% 0 in 139 W/m2
15:03 67.5 °F 54.9 °F 29.8 in NE 2 mph 7 mph 64% 0 in 134 W/m2
15:08 67.1 °F 55.4 °F 29.8 in SE 0.9 mph 9 mph 66% 0 in 139 W/m2
15:13 66.9 °F 54.3 °F 29.8 in ESE 0.9 mph 5 mph 64% 0 in 156 W/m2
15:18 66.9 °F 54.3 °F 29.8 in NE 2 mph 7 mph 64% 0 in 188 W/m2
15:23 67.1 °F 54.9 °F 29.8 in ENE 2 mph 4 mph 65% 0 in 216 W/m2
15:28 67.3 °F 54.7 °F 29.8 in NNE 0.9 mph 4 mph 64% 0 in 301 W/m2
15:34 67.8 °F 56.5 °F 29.8 in East 4 mph 5 mph 67% 0 in 301 W/m2
15:39 68.4 °F 55.8 °F 29.8 in NE 2.9 mph 8 mph 64% 0 in 299 W/m2
15:44 68.2 °F 55 °F 29.8 in ENE 4 mph 9 mph 63% 0 in 193 W/m2
15:49 67.8 °F 55.6 °F 29.8 in ESE 0.9 mph 2 mph 65% 0 in 214 W/m2
15:54 67.8 °F 56.1 °F 29.8 in East 2.9 mph 9 mph 66% 0 in 218 W/m2
15:59 67.6 °F 55.4 °F 29.8 in ENE 0.9 mph 2 mph 65% 0 in 253 W/m2
16:04 67.6 °F 55.9 °F 29.7 in East 2 mph 4 mph 66% 0 in 285 W/m2
16:09 67.8 °F 56.5 °F 29.8 in East 2.9 mph 3 mph 67% 0 in 292 W/m2
16:14 67.8 °F 56.1 °F 29.7 in SE 0.9 mph 3 mph 66% 0 in 306 W/m2
16:19 68 °F 56.3 °F 29.8 in East 0.9 mph 6 mph 66% 0 in 308 W/m2
16:24 67.8 °F 56.1 °F 29.7 in East 2.9 mph 7 mph 66% 0 in 272 W/m2
16:29 67.8 °F 56.5 °F 29.7 in East 2.9 mph 4 mph 67% 0 in 357 W/m2
16:34 68.2 °F 57.2 °F 29.7 in NE 2.9 mph 7 mph 68% 0 in 886 W/m2
16:39 68.9 °F 56.7 °F 29.7 in NNW 2.9 mph 7 mph 65% 0 in 443 W/m2
16:44 69.3 °F 57.4 °F 29.7 in ESE 0.9 mph 4 mph 66% 0 in 422 W/m2
16:49 69.3 °F 57 °F 29.7 in ENE 2 mph 3 mph 65% 0 in 209 W/m2
16:54 68.9 °F 55.8 °F 29.7 in ENE 0.9 mph 7 mph 63% 0 in 243 W/m2
16:59 69.1 °F 56.5 °F 29.7 in NE 2.9 mph 5 mph 64% 0 in 754 W/m2
17:04 69.4 °F 55.9 °F 29.7 in SW 2 mph 12 mph 62% 0 in 654 W/m2
17:09 70 °F 56.3 °F 29.7 in SE 4.9 mph 7 mph 62% 0 in 638 W/m2
17:15 70.2 °F 56.1 °F 29.7 in SSE 4 mph 11 mph 61% 0 in 619 W/m2
17:20 70.3 °F 55.8 °F 29.7 in NE 4.9 mph 8 mph 60% 0 in 613 W/m2
17:25 70.5 °F 55.6 °F 29.7 in ENE 2 mph 10 mph 59% 0 in 619 W/m2
17:30 70.5 °F 55.9 °F 29.7 in NE 6 mph 6 mph 60% 0 in 592 W/m2
17:35 70.9 °F 55.8 °F 29.7 in East 10.1 mph 10 mph 59% 0 in 121 W/m2
17:40 70.5 °F 54.5 °F 29.7 in ESE 0.9 mph 5 mph 57% 0 in 172 W/m2
17:45 70.5 °F 55 °F 29.7 in ENE 2 mph 8 mph 58% 0 in 550 W/m2
17:50 70.3 °F 55.8 °F 29.7 in ENE 2.9 mph 7 mph 60% 0 in 552 W/m2
17:55 70.9 °F 55.8 °F 29.7 in SW 2 mph 5 mph 59% 0 in 554 W/m2
18:00 70.9 °F 55.8 °F 29.7 in NE 2 mph 5 mph 59% 0 in 127 W/m2
18:05 70.3 °F 55.4 °F 29.7 in North 2 mph 7 mph 59% 0 in 531 W/m2
18:10 70.3 °F 55.8 °F 29.7 in East 2.9 mph 3 mph 60% 0 in 492 W/m2
18:15 70.5 °F 55.6 °F 29.7 in ENE 6.9 mph 10 mph 59% 0 in 504 W/m2
18:20 70.3 °F 55.8 °F 29.7 in SSE 2 mph 9 mph 60% 0 in 102 W/m2
18:25 70 °F 55.4 °F 29.7 in NE 2.9 mph 10 mph 60% 0 in 461 W/m2
18:30 70.2 °F 56.5 °F 29.7 in ESE 2.9 mph 4 mph 62% 0 in 434 W/m2
18:35 70.2 °F 56.1 °F 29.7 in NNE 0.9 mph 7 mph 61% 0 in 102 W/m2
18:40 69.4 °F 56.3 °F 29.7 in North 2.9 mph 3 mph 63% 0 in 91 W/m2
18:45 69.4 °F 56.7 °F 29.7 in East 2.9 mph 4 mph 64% 0 in 84 W/m2
18:50 69.3 °F 55.8 °F 29.7 in East 7 mph 7 mph 62% 0 in 107 W/m2
18:55 69.1 °F 55.9 °F 29.7 in Calm   4 mph 63% 0 in 250 W/m2
19:00 69.1 °F 55.6 °F 29.7 in NNE 2.9 mph 12 mph 62% 0 in 260 W/m2
19:05 69.3 °F 54.3 °F 29.7 in North 2 mph 4 mph 59% 0 in 283 W/m2
19:10 69.4 °F 54.5 °F 29.7 in ESE 2 mph 6 mph 59% 0 in 297 W/m2
19:15 69.4 °F 54.9 °F 29.7 in SE 4 mph 7 mph 60% 0 in 302 W/m2
19:20 69.3 °F 55.2 °F 29.7 in NE 2 mph 2 mph 61% 0 in 290 W/m2
19:25 69.6 °F 55 °F 29.7 in North 4.9 mph 5 mph 60% 0 in 276 W/m2
19:30 69.6 °F 55 °F 29.7 in NNE 2 mph 6 mph 60% 0 in 255 W/m2
19:35 69.6 °F 55.6 °F 29.7 in NNE 2 mph 4 mph 61% 0 in 227 W/m2
19:41 69.6 °F 55.9 °F 29.7 in NE 0.9 mph 2 mph 62% 0 in 192 W/m2
19:46 69.6 °F 55.6 °F 29.7 in East 2 mph 7 mph 61% 0 in 174 W/m2
19:51 69.6 °F 55.6 °F 29.7 in ESE 2 mph 6 mph 61% 0 in 169 W/m2
19:56 69.6 °F 55.6 °F 29.7 in SE 2.9 mph 5 mph 61% 0 in 179 W/m2
20:01 69.4 °F 55.9 °F 29.7 in ENE 4.9 mph 5 mph 62% 0 in 163 W/m2
20:06 69.4 °F 55.4 °F 29.7 in NE 2 mph 9 mph 61% 0 in 141 W/m2
20:11 69.1 °F 55.6 °F 29.7 in NE 4 mph 8 mph 62% 0 in 134 W/m2
20:16 68.7 °F 56.1 °F 29.7 in East 0.9 mph 4 mph 64% 0 in 121 W/m2
20:21 68.5 °F 55.9 °F 29.7 in Calm   2 mph 64% 0 in 105 W/m2
20:26 68.5 °F 55.9 °F 29.7 in ENE 2 mph 5 mph 64% 0 in 105 W/m2
20:31 68.4 °F 55.8 °F 29.7 in ESE 0.9 mph 5 mph 64% 0 in 90 W/m2
20:36 68.4 °F 55.8 °F 29.7 in ENE 0.9 mph 7 mph 64% 0 in 77 W/m2
20:41 68.2 °F 55.9 °F 29.7 in East 0.9 mph 5 mph 65% 0 in 77 W/m2
20:46 68.2 °F 55.9 °F 29.7 in SSE 0.9 mph 2 mph 65% 0 in 58 W/m2
20:51 67.8 °F 56.1 °F 29.7 in NE 0.9 mph 3 mph 66% 0 in 51 W/m2
20:56 67.5 °F 55.2 °F 29.7 in East 0.9 mph 3 mph 65% 0 in 42 W/m2
21:01 67.3 °F 55 °F 29.7 in East 0.9 mph 4 mph 65% 0 in 37 W/m2
21:06 66.9 °F 54.9 °F 29.7 in ENE 6 mph 6 mph 65% 0 in 28 W/m2
21:11 66.6 °F 55.2 °F 29.7 in Calm   3 mph 67% 0 in 16 W/m2
21:16 65.8 °F 54.5 °F 29.7 in NE 2 mph 3 mph 67% 0 in 14 W/m2
21:21 65.5 °F 55 °F 29.7 in Calm     69% 0 in 12 W/m2
21:26 64.9 °F 54.1 °F 29.7 in ESE 2 mph 4 mph 68% 0 in 11 W/m2
21:31 64.6 °F 54.1 °F 29.7 in NE 2 mph 2 mph 69% 0 in 7 W/m2
21:36 64.2 °F 53.8 °F 29.7 in East 2.9 mph 9 mph 69% 0 in 5 W/m2
21:42 64 °F 53.6 °F 29.7 in ENE 0.9 mph 5 mph 69% 0 in 5 W/m2
21:47 63.9 °F 54.3 °F 29.7 in Calm   9 mph 71% 0 in 0 W/m2
21:52 63.3 °F 53.8 °F 29.7 in Calm   1 mph 71% 0 in 0 W/m2
21:57 63 °F 53.8 °F 29.7 in NE 2 mph 6 mph 72% 0 in 0 W/m2
22:02 62.8 °F 54 °F 29.7 in East 0.9 mph 1 mph 73% 0 in 0 W/m2
22:07 62.4 °F 54 °F 29.7 in SE 2 mph 6 mph 74% 0 in 0 W/m2
22:12 62.2 °F 53.8 °F 29.7 in Calm   1 mph 74% 0 in 0 W/m2
22:17 62.1 °F 54 °F 29.7 in ESE 2 mph 7 mph 75% 0 in 0 W/m2
22:22 61.7 °F 53.8 °F 29.7 in ENE 0.9 mph 3 mph 75% 0 in 0 W/m2
22:27 61.5 °F 54 °F 29.7 in Calm   6 mph 76% 0 in 0 W/m2
22:32 61.3 °F 54.1 °F 29.7 in Calm   2 mph 77% 0 in 0 W/m2
22:37 61.3 °F 54.1 °F 29.7 in ESE 0.9 mph 6 mph 77% 0 in 0 W/m2
22:42 61.2 °F 54 °F 29.8 in East 0.9 mph 2 mph 77% 0 in 0 W/m2
22:47 61.2 °F 54 °F 29.7 in Calm   3 mph 77% 0 in 0 W/m2
22:52 61.2 °F 54.3 °F 29.7 in ENE 0.9 mph 4 mph 78% 0 in 0 W/m2
22:57 61.2 °F 54.3 °F 29.7 in NE 0.9 mph 3 mph 78% 0 in 0 W/m2
23:02 61 °F 54.5 °F 29.7 in East 2.9 mph 3 mph 79% 0 in 0 W/m2
23:07 60.6 °F 54.1 °F 29.8 in East 6 mph 6 mph 79% 0 in 0 W/m2
23:12 60.6 °F 54.1 °F 29.8 in Calm   4 mph 79% 0 in 0 W/m2
23:17 60.4 °F 54.3 °F 29.7 in Calm   3 mph 80% 0 in 0 W/m2
23:22 60.4 °F 54.3 °F 29.7 in Calm   2 mph 80% 0 in 0 W/m2
23:27 60.3 °F 54.1 °F 29.7 in Calm   1 mph 80% 0 in 0 W/m2
23:32 59.9 °F 54.1 °F 29.7 in Calm   1 mph 81% 0 in 0 W/m2
23:37 59.5 °F 53.8 °F 29.7 in Calm     81% 0 in 0 W/m2
23:42 59.4 °F 53.8 °F 29.7 in Calm     82% 0 in 0 W/m2
23:47 59 °F 53.8 °F 29.7 in Calm   1 mph 83% 0 in 0 W/m2
23:52 58.6 °F 53.8 °F 29.7 in Calm     84% 0 in 0 W/m2
23:57 58.5 °F 53.6 °F 29.7 in Calm     84% 0 in 0 W/m2
Juneau County Weather
Compliments of Weather Underground - 4 mb